createdAt,value
2019-02-18T00:01:17.752Z,0.00
2019-02-18T00:03:47.388Z,0.00
2019-02-18T00:06:17.090Z,-0.30
2019-02-18T00:08:46.808Z,-0.30
2019-02-18T00:11:16.525Z,-0.10
2019-02-18T00:13:46.173Z,0.00
2019-02-18T00:16:15.893Z,0.10
2019-02-18T00:18:45.549Z,0.00
2019-02-18T00:21:15.252Z,0.00
2019-02-18T00:23:44.911Z,0.00
2019-02-18T00:26:14.532Z,-0.20
2019-02-18T00:28:44.210Z,-0.20
2019-02-18T00:31:13.841Z,-0.10
2019-02-18T00:33:43.503Z,-0.40
2019-02-18T00:36:13.132Z,-0.50
2019-02-18T00:38:42.815Z,-0.20
2019-02-18T00:41:12.516Z,-0.20
2019-02-18T00:43:42.171Z,-0.20
2019-02-18T00:46:11.878Z,-0.40
2019-02-18T00:48:41.535Z,-0.40
2019-02-18T00:51:11.383Z,-0.30
2019-02-18T00:53:41.032Z,-0.20
2019-02-18T00:56:10.677Z,-0.20
2019-02-18T00:58:40.344Z,-0.20
2019-02-18T01:01:10.055Z,-0.20
2019-02-18T01:03:39.797Z,-0.40
2019-02-18T01:06:09.506Z,-0.80
2019-02-18T01:08:39.163Z,-0.90
2019-02-18T01:11:08.860Z,-0.50
2019-02-18T01:13:38.584Z,-0.50
2019-02-18T01:16:08.290Z,-0.60
2019-02-18T01:18:37.950Z,-0.60
2019-02-18T01:21:07.646Z,-0.50
2019-02-18T01:23:37.312Z,-0.60
2019-02-18T01:26:06.942Z,-0.70
2019-02-18T01:28:36.602Z,-0.70
2019-02-18T01:31:06.226Z,-0.50
2019-02-18T01:33:35.890Z,-0.50
2019-02-18T01:36:05.518Z,-0.50
2019-02-18T01:38:35.172Z,-0.60
2019-02-18T01:41:06.860Z,-0.60
2019-02-18T01:43:36.521Z,-0.60
2019-02-18T01:46:06.155Z,-0.70
2019-02-18T01:48:35.797Z,-0.80
2019-02-18T01:51:05.533Z,-0.70
2019-02-18T01:53:35.181Z,-0.80
2019-02-18T01:56:04.812Z,-0.80
2019-02-18T01:58:34.472Z,-0.80
2019-02-18T02:01:04.322Z,-0.80
2019-02-18T02:03:33.965Z,-0.80
2019-02-18T02:06:03.665Z,-0.90
2019-02-18T02:08:33.322Z,-0.80
2019-02-18T02:11:02.959Z,-0.80
2019-02-18T02:13:35.014Z,-0.90
2019-02-18T02:16:06.491Z,-1.00
2019-02-18T02:18:36.171Z,-0.90
2019-02-18T02:21:05.920Z,-1.00
2019-02-18T02:23:35.599Z,-0.90
2019-02-18T02:26:05.205Z,-0.80
2019-02-18T02:28:34.839Z,-0.80
2019-02-18T02:31:04.589Z,-1.10
2019-02-18T02:33:34.228Z,-1.20
2019-02-18T02:36:03.895Z,-1.10
2019-02-18T02:38:33.508Z,-1.10
2019-02-18T02:41:03.250Z,-1.00
2019-02-18T02:43:32.901Z,-1.00
2019-02-18T02:46:02.561Z,-1.10
2019-02-18T02:48:32.189Z,-1.00
2019-02-18T02:51:01.949Z,-1.10
2019-02-18T02:53:31.562Z,-1.00
2019-02-18T02:56:01.213Z,-1.00
2019-02-18T02:58:30.842Z,-1.10
2019-02-18T03:01:00.614Z,-1.20
2019-02-18T03:03:30.233Z,-1.20
2019-02-18T03:05:59.886Z,-1.20
2019-02-18T03:08:29.509Z,-1.20
2019-02-18T03:10:59.167Z,-1.10
2019-02-18T03:13:28.793Z,-1.10
2019-02-18T03:15:58.456Z,-1.20
2019-02-18T03:18:28.089Z,-1.20
2019-02-18T03:20:57.774Z,-1.20
2019-02-18T03:23:27.405Z,-1.20
2019-02-18T03:25:57.060Z,-1.30
2019-02-18T03:28:41.843Z,-1.50
2019-02-18T03:31:17.409Z,-1.40
2019-02-18T03:33:52.970Z,-1.30
2019-02-18T03:36:22.634Z,-1.30
2019-02-18T03:38:52.362Z,-1.30
2019-02-18T03:41:22.124Z,-1.40
2019-02-18T03:43:51.757Z,-1.50
2019-02-18T03:46:21.396Z,-1.40
2019-02-18T03:48:51.025Z,-1.30
2019-02-18T03:51:20.689Z,-1.40
2019-02-18T03:53:50.296Z,-1.30
2019-02-18T03:56:19.957Z,-1.50
2019-02-18T03:58:49.581Z,-1.50
2019-02-18T04:01:19.465Z,-1.50
2019-02-18T04:03:49.101Z,-1.40
2019-02-18T04:06:18.756Z,-1.50
2019-02-18T04:08:48.365Z,-1.60
2019-02-18T04:11:18.012Z,-1.50
2019-02-18T04:13:47.640Z,-1.50
2019-02-18T04:16:17.305Z,-1.60
2019-02-18T04:18:46.912Z,-1.50
2019-02-18T04:21:16.625Z,-1.40
2019-02-18T04:23:46.269Z,-1.60
2019-02-18T04:26:15.907Z,-1.60
2019-02-18T04:28:45.528Z,-1.70
2019-02-18T04:31:15.262Z,-1.70
2019-02-18T04:33:44.889Z,-1.60
2019-02-18T04:36:14.533Z,-1.70
2019-02-18T04:38:53.758Z,-1.70
2019-02-18T04:41:15.736Z,-1.70
2019-02-18T04:43:45.690Z,-1.80
2019-02-18T04:46:15.331Z,-1.90
2019-02-18T04:48:44.953Z,-2.00
2019-02-18T04:51:14.688Z,-1.90
2019-02-18T04:53:44.312Z,-1.80
2019-02-18T04:56:13.958Z,-1.90
2019-02-18T04:58:43.580Z,-1.80
2019-02-18T05:01:16.385Z,-1.70
2019-02-18T05:03:46.005Z,-1.70
2019-02-18T05:06:15.651Z,-1.80
2019-02-18T05:08:45.385Z,-1.80
2019-02-18T05:11:15.032Z,-1.90
2019-02-18T05:13:45.964Z,-1.90
2019-02-18T05:16:15.796Z,-1.90
2019-02-18T05:18:45.420Z,-1.70
2019-02-18T05:21:15.312Z,-1.70
2019-02-18T05:23:44.945Z,-1.80
2019-02-18T05:26:14.576Z,-1.70
2019-02-18T05:28:44.200Z,-1.90
2019-02-18T05:31:13.853Z,-1.90
2019-02-18T05:33:43.482Z,-1.90
2019-02-18T05:36:13.130Z,-1.90
2019-02-18T05:38:42.753Z,-1.90
2019-02-18T05:41:12.412Z,-1.90
2019-02-18T05:43:42.040Z,-1.80
2019-02-18T05:46:11.695Z,-1.80
2019-02-18T05:48:41.320Z,-1.80
2019-02-18T05:51:10.984Z,-2.00
2019-02-18T05:53:40.605Z,-1.90
2019-02-18T05:56:10.256Z,-2.20
2019-02-18T05:58:39.887Z,-2.20
2019-02-18T06:01:09.544Z,-2.00
2019-02-18T06:03:39.180Z,-1.90
2019-02-18T06:06:08.822Z,-2.00
2019-02-18T06:08:38.520Z,-2.00
2019-02-18T06:11:08.175Z,-2.20
2019-02-18T06:13:37.801Z,-2.10
2019-02-18T06:16:07.452Z,-2.00
2019-02-18T06:18:37.076Z,-2.00
2019-02-18T06:21:06.805Z,-2.00
2019-02-18T06:23:36.429Z,-2.00
2019-02-18T06:26:06.083Z,-2.00
2019-02-18T06:28:35.708Z,-2.00
2019-02-18T06:31:05.521Z,-2.10
2019-02-18T06:33:35.148Z,-2.20
2019-02-18T06:36:04.803Z,-2.10
2019-02-18T06:38:34.460Z,-2.00
2019-02-18T06:41:04.169Z,-2.10
2019-02-18T06:43:33.812Z,-2.00
2019-02-18T06:46:07.771Z,-2.20
2019-02-18T06:48:39.075Z,-2.10
2019-02-18T06:51:08.924Z,-2.20
2019-02-18T06:53:38.576Z,-2.10
2019-02-18T06:56:08.201Z,-2.10
2019-02-18T06:58:42.153Z,-2.00
2019-02-18T07:01:29.713Z,-2.10
2019-02-18T07:04:13.181Z,-2.00
2019-02-18T07:06:50.680Z,-1.90
2019-02-18T07:09:48.750Z,-2.00
2019-02-18T07:12:13.065Z,-1.90
2019-02-18T07:14:42.714Z,-1.90
2019-02-18T07:17:12.369Z,-1.70
2019-02-18T07:19:42.021Z,-1.70
2019-02-18T07:22:11.644Z,-1.70
2019-02-18T07:24:41.296Z,-1.60
2019-02-18T07:27:10.938Z,-1.60
2019-02-18T07:29:40.586Z,-1.60
2019-02-18T07:32:10.213Z,-1.50
2019-02-18T07:34:39.939Z,-1.50
2019-02-18T07:37:09.562Z,-1.30
2019-02-18T07:39:39.212Z,-1.10
2019-02-18T07:42:08.832Z,-0.90
2019-02-18T07:44:38.488Z,-0.70
2019-02-18T07:47:08.113Z,-0.30
2019-02-18T07:49:37.769Z,0.20
2019-02-18T07:52:07.500Z,0.90
2019-02-18T07:54:37.146Z,1.40
2019-02-18T07:57:06.768Z,2.00
2019-02-18T07:59:36.416Z,2.60
2019-02-18T08:02:06.312Z,3.10
2019-02-18T08:04:35.956Z,3.30
2019-02-18T08:07:05.581Z,3.70
2019-02-18T08:09:35.230Z,4.00
2019-02-18T08:12:04.926Z,4.40
2019-02-18T08:14:34.577Z,4.50
2019-02-18T08:17:04.193Z,4.90
2019-02-18T08:19:33.840Z,5.10
2019-02-18T08:22:03.532Z,5.20
2019-02-18T08:24:33.176Z,5.60
2019-02-18T08:27:02.807Z,5.70
2019-02-18T08:29:32.458Z,5.60
2019-02-18T08:32:02.140Z,5.80
2019-02-18T08:34:31.788Z,6.10
2019-02-18T08:37:01.406Z,6.20
2019-02-18T08:39:31.077Z,6.40
2019-02-18T08:42:00.681Z,6.60
2019-02-18T08:44:30.334Z,6.90
2019-02-18T08:46:59.956Z,7.10
2019-02-18T08:49:29.605Z,7.40
2019-02-18T08:51:59.512Z,7.80
2019-02-18T08:54:29.163Z,7.90
2019-02-18T08:56:58.778Z,8.00
2019-02-18T08:59:28.425Z,8.00
2019-02-18T09:01:58.048Z,8.20
2019-02-18T09:04:28.213Z,8.70
2019-02-18T09:06:57.921Z,8.90
2019-02-18T09:09:27.537Z,8.80
2019-02-18T09:11:57.234Z,8.90
2019-02-18T09:14:26.813Z,9.40
2019-02-18T09:16:56.456Z,9.50
2019-02-18T09:19:26.076Z,9.40
2019-02-18T09:22:06.219Z,9.10
2019-02-18T09:24:37.484Z,9.20
2019-02-18T09:27:07.140Z,9.50
2019-02-18T09:29:36.763Z,9.60
2019-02-18T09:32:06.457Z,9.80
2019-02-18T09:34:36.076Z,10.30
2019-02-18T09:37:05.728Z,10.50
2019-02-18T09:39:35.367Z,10.70
2019-02-18T09:42:05.012Z,11.20
2019-02-18T09:44:34.639Z,11.40
2019-02-18T09:47:04.289Z,11.70
2019-02-18T09:49:33.917Z,12.40
2019-02-18T09:52:03.612Z,15.20
2019-02-18T09:54:33.241Z,17.90
2019-02-18T09:57:02.889Z,18.70
2019-02-18T09:59:32.523Z,20.50
2019-02-18T10:02:02.248Z,19.80
2019-02-18T10:04:31.879Z,19.80
2019-02-18T10:07:01.529Z,19.50
2019-02-18T10:09:31.153Z,21.60
2019-02-18T10:12:00.829Z,21.20
2019-02-18T10:14:30.457Z,20.40
2019-02-18T10:17:00.121Z,20.90
2019-02-18T10:19:29.752Z,19.20
2019-02-18T10:21:59.407Z,18.00
2019-02-18T10:24:29.033Z,18.30
2019-02-18T10:26:58.693Z,18.10
2019-02-18T10:29:28.320Z,17.50
2019-02-18T10:31:58.061Z,17.90
2019-02-18T10:34:27.688Z,18.80
2019-02-18T10:36:57.340Z,18.60
2019-02-18T10:39:26.974Z,18.70
2019-02-18T10:41:56.624Z,17.60
2019-02-18T10:44:26.253Z,19.20
2019-02-18T10:46:55.917Z,18.60
2019-02-18T10:49:25.552Z,19.70
2019-02-18T10:51:55.601Z,18.30
2019-02-18T10:54:25.233Z,18.60
2019-02-18T10:56:54.890Z,20.00
2019-02-18T10:59:24.527Z,20.90
2019-02-18T11:01:54.188Z,21.30
2019-02-18T11:04:23.832Z,21.70
2019-02-18T11:06:53.489Z,20.50
2019-02-18T11:09:23.113Z,20.30
2019-02-18T11:11:52.772Z,21.60
2019-02-18T11:14:22.711Z,21.80
2019-02-18T11:16:52.369Z,22.20
2019-02-18T11:19:21.997Z,21.80
2019-02-18T11:21:51.649Z,21.90
2019-02-18T11:24:21.277Z,23.00
2019-02-18T11:26:50.928Z,22.80
2019-02-18T11:29:20.562Z,21.00
2019-02-18T11:31:50.332Z,22.90
2019-02-18T11:34:19.965Z,23.00
2019-02-18T11:36:49.689Z,24.00
2019-02-18T11:39:19.321Z,24.70
2019-02-18T11:41:48.982Z,24.90
2019-02-18T11:44:18.616Z,25.70
2019-02-18T11:46:48.274Z,26.40
2019-02-18T11:49:17.914Z,26.10
2019-02-18T11:51:47.565Z,26.10
2019-02-18T11:54:17.493Z,27.30
2019-02-18T11:56:47.151Z,25.30
2019-02-18T11:59:24.004Z,26.70
2019-02-18T12:01:48.057Z,28.40
2019-02-18T12:04:17.685Z,27.40
2019-02-18T12:06:47.333Z,27.50
2019-02-18T12:09:17.820Z,27.10
2019-02-18T12:11:47.689Z,29.20
2019-02-18T12:14:17.346Z,30.00
2019-02-18T12:16:47.247Z,29.00
2019-02-18T12:19:16.901Z,28.10
2019-02-18T12:22:06.002Z,29.50
2019-02-18T12:24:35.629Z,28.90
2019-02-18T12:27:05.309Z,30.60
2019-02-18T12:29:34.937Z,31.00
2019-02-18T12:32:07.327Z,30.10
2019-02-18T12:34:37.356Z,30.70
2019-02-18T12:37:07.022Z,29.30
2019-02-18T12:39:39.681Z,28.60
2019-02-18T12:42:09.868Z,29.10
2019-02-18T12:44:39.433Z,30.70
2019-02-18T12:47:09.561Z,30.00
2019-02-18T12:49:39.213Z,29.90
2019-02-18T12:52:09.001Z,29.10
2019-02-18T12:54:38.733Z,29.10
2019-02-18T12:57:08.365Z,30.20
2019-02-18T12:59:38.068Z,28.20
2019-02-18T13:02:08.048Z,28.10
2019-02-18T13:04:37.996Z,27.40
2019-02-18T13:07:07.635Z,28.80
2019-02-18T13:09:37.344Z,28.60
2019-02-18T13:12:07.054Z,26.80
2019-02-18T13:14:36.698Z,27.40
2019-02-18T13:17:06.673Z,28.70
2019-02-18T13:19:36.322Z,29.00
2019-02-18T13:22:06.124Z,28.50
2019-02-18T13:24:36.790Z,27.90
2019-02-18T13:27:25.913Z,27.10
2019-02-18T13:29:55.561Z,28.70
2019-02-18T13:32:25.521Z,27.50
2019-02-18T13:34:55.188Z,28.10
2019-02-18T13:37:24.820Z,26.80
2019-02-18T13:39:54.465Z,27.20
2019-02-18T13:42:24.097Z,26.30
2019-02-18T13:44:53.754Z,26.50
2019-02-18T13:47:23.679Z,26.50
2019-02-18T13:49:53.400Z,25.60
2019-02-18T13:52:25.821Z,21.90
2019-02-18T13:54:55.473Z,18.40
2019-02-18T13:57:25.216Z,16.40
2019-02-18T13:59:54.896Z,15.40
2019-02-18T14:02:27.016Z,15.00
2019-02-18T14:04:56.664Z,14.90
2019-02-18T14:07:26.369Z,15.00
2019-02-18T14:09:56.024Z,14.40
2019-02-18T14:12:25.796Z,13.90
2019-02-18T14:14:55.760Z,13.90
2019-02-18T14:17:25.403Z,13.80
2019-02-18T14:19:55.120Z,13.60
2019-02-18T14:22:24.764Z,13.20
2019-02-18T14:24:54.426Z,13.00
2019-02-18T14:27:24.056Z,13.10
2019-02-18T14:29:53.920Z,12.90
2019-02-18T14:32:24.948Z,12.70
2019-02-18T14:34:54.608Z,12.40
2019-02-18T14:37:24.245Z,12.60
2019-02-18T14:39:54.801Z,12.40
2019-02-18T14:42:26.460Z,12.40
2019-02-18T14:44:56.120Z,12.60
2019-02-18T14:47:25.745Z,12.50
2019-02-18T14:49:55.471Z,12.40
2019-02-18T14:52:25.440Z,12.20
2019-02-18T14:54:55.192Z,11.80
2019-02-18T14:57:25.120Z,11.70
2019-02-18T14:59:54.785Z,11.70
2019-02-18T15:02:24.481Z,11.70
2019-02-18T15:04:54.205Z,11.70
2019-02-18T15:07:23.837Z,11.60
2019-02-18T15:09:53.485Z,11.50
2019-02-18T15:12:23.644Z,11.40
2019-02-18T15:14:53.310Z,11.30
2019-02-18T15:17:23.004Z,11.20
2019-02-18T15:19:52.665Z,11.30
2019-02-18T15:22:22.362Z,11.30
2019-02-18T15:24:52.008Z,11.20
2019-02-18T15:27:21.804Z,11.10
2019-02-18T15:29:51.454Z,11.00
2019-02-18T15:32:21.120Z,10.90
2019-02-18T15:34:50.773Z,10.80
2019-02-18T15:37:21.496Z,10.80
2019-02-18T15:39:51.541Z,10.70
2019-02-18T15:42:21.360Z,10.70
2019-02-18T15:44:51.084Z,10.70
2019-02-18T15:47:20.953Z,10.60
2019-02-18T15:49:50.604Z,10.60
2019-02-18T15:52:20.308Z,10.40
2019-02-18T15:54:50.178Z,10.30
2019-02-18T15:57:19.875Z,10.30
2019-02-18T15:59:49.526Z,10.20
2019-02-18T16:02:19.377Z,10.20
2019-02-18T16:04:49.020Z,10.20
2019-02-18T16:07:18.725Z,10.20
2019-02-18T16:09:48.388Z,10.10
2019-02-18T16:12:18.048Z,9.90
2019-02-18T16:14:48.142Z,9.90
2019-02-18T16:17:17.841Z,9.80
2019-02-18T16:19:47.476Z,9.70
2019-02-18T16:22:17.169Z,9.70
2019-02-18T16:24:46.798Z,9.60
2019-02-18T16:27:16.457Z,9.40
2019-02-18T16:29:46.098Z,9.30
2019-02-18T16:32:15.821Z,9.10
2019-02-18T16:34:45.458Z,8.70
2019-02-18T16:37:15.400Z,8.50
2019-02-18T16:39:45.174Z,8.20
2019-02-18T16:42:14.936Z,8.00
2019-02-18T16:44:44.566Z,8.10
2019-02-18T16:47:14.225Z,8.00
2019-02-18T16:49:43.841Z,7.30
2019-02-18T16:52:13.879Z,7.10
2019-02-18T16:54:43.513Z,7.00
2019-02-18T16:57:13.157Z,6.90
2019-02-18T16:59:42.805Z,7.00
2019-02-18T17:02:13.393Z,6.40
2019-02-18T17:04:43.414Z,6.40
2019-02-18T17:07:13.066Z,6.40
2019-02-18T17:09:42.790Z,6.30
2019-02-18T17:12:13.384Z,6.40
2019-02-18T17:14:43.004Z,6.40
2019-02-18T17:17:12.652Z,6.10
2019-02-18T17:19:42.576Z,5.70
2019-02-18T17:22:12.323Z,5.90
2019-02-18T17:24:41.955Z,5.90
2019-02-18T17:27:11.604Z,5.50
2019-02-18T17:29:41.230Z,5.40
2019-02-18T17:32:10.950Z,5.70
2019-02-18T17:34:42.943Z,5.80
2019-02-18T17:37:14.662Z,5.90
2019-02-18T17:39:47.591Z,5.50
2019-02-18T17:42:17.534Z,5.60
2019-02-18T17:44:47.753Z,5.50
2019-02-18T17:47:17.876Z,5.30
2019-02-18T17:49:47.508Z,5.20
2019-02-18T17:52:17.216Z,5.20
2019-02-18T17:54:46.880Z,5.20
2019-02-18T17:57:16.529Z,5.00
2019-02-18T17:59:46.153Z,4.90
2019-02-18T18:02:16.136Z,4.80
2019-02-18T18:04:45.763Z,4.70
2019-02-18T18:07:15.413Z,3.80
2019-02-18T18:09:45.032Z,3.40
2019-02-18T18:12:14.677Z,3.90
2019-02-18T18:14:44.307Z,4.10
2019-02-18T18:17:14.365Z,4.10
2019-02-18T18:19:43.981Z,3.80
2019-02-18T18:22:13.729Z,3.40
2019-02-18T18:24:43.349Z,3.70
2019-02-18T18:27:12.996Z,3.60
2019-02-18T18:29:42.624Z,3.60
2019-02-18T18:32:12.550Z,3.60
2019-02-18T18:34:42.181Z,3.50
2019-02-18T18:37:11.830Z,3.40
2019-02-18T18:39:41.450Z,3.50
2019-02-18T18:42:11.283Z,3.50
2019-02-18T18:44:40.898Z,3.60
2019-02-18T18:47:10.590Z,3.60
2019-02-18T18:49:40.219Z,3.60
2019-02-18T18:52:09.913Z,3.40
2019-02-18T18:54:39.629Z,3.30
2019-02-18T18:57:09.289Z,3.20
2019-02-18T18:59:39.298Z,3.30
2019-02-18T19:02:09.093Z,3.30
2019-02-18T19:04:38.743Z,3.20
2019-02-18T19:07:08.369Z,3.00
2019-02-18T19:09:38.022Z,3.00
2019-02-18T19:12:07.636Z,2.90
2019-02-18T19:14:37.290Z,2.90
2019-02-18T19:17:06.912Z,3.00
2019-02-18T19:19:36.553Z,2.90
2019-02-18T19:22:06.367Z,3.00
2019-02-18T19:24:36.027Z,2.90
2019-02-18T19:27:06.048Z,2.60
2019-02-18T19:29:37.418Z,2.80
2019-02-18T19:32:07.085Z,3.00
2019-02-18T19:34:36.789Z,2.90
2019-02-18T19:37:06.413Z,2.90
2019-02-18T19:39:36.072Z,2.60
2019-02-18T19:42:07.567Z,2.20
2019-02-18T19:44:37.225Z,2.20
2019-02-18T19:47:06.840Z,2.40
2019-02-18T19:49:36.505Z,2.60
2019-02-18T19:52:06.269Z,2.60
2019-02-18T19:54:36.221Z,2.70
2019-02-18T19:57:05.842Z,2.60
2019-02-18T19:59:35.489Z,2.40
2019-02-18T20:02:05.328Z,2.30
2019-02-18T20:04:34.980Z,2.40
2019-02-18T20:07:04.605Z,2.40
2019-02-18T20:09:34.269Z,2.30
2019-02-18T20:12:04.043Z,2.10
2019-02-18T20:14:33.689Z,2.10
2019-02-18T20:17:03.321Z,2.10
2019-02-18T20:19:32.964Z,2.10
2019-02-18T20:22:03.180Z,1.90
2019-02-18T20:24:32.833Z,2.00
2019-02-18T20:27:02.459Z,1.90
2019-02-18T20:29:32.117Z,1.90
2019-02-18T20:32:01.917Z,1.90
2019-02-18T20:34:31.568Z,1.90
2019-02-18T20:37:01.430Z,1.90
2019-02-18T20:39:31.077Z,1.90
2019-02-18T20:42:00.704Z,1.80
2019-02-18T20:44:30.353Z,1.70
2019-02-18T20:46:59.980Z,1.60
2019-02-18T20:49:29.628Z,1.60
2019-02-18T20:51:59.688Z,1.60
2019-02-18T20:54:29.336Z,1.50
2019-02-18T20:56:58.961Z,1.40
2019-02-18T20:59:28.612Z,1.40
2019-02-18T21:01:58.236Z,1.60
2019-02-18T21:04:28.288Z,1.50
2019-02-18T21:06:57.912Z,1.30
2019-02-18T21:09:27.562Z,1.50
2019-02-18T21:11:57.245Z,1.40
2019-02-18T21:14:26.893Z,1.30
2019-02-18T21:16:56.517Z,1.30
2019-02-18T21:19:38.474Z,1.40
2019-02-18T21:22:08.088Z,1.50
2019-02-18T21:24:37.740Z,1.50
2019-02-18T21:27:07.375Z,1.50
2019-02-18T21:29:37.015Z,1.60
2019-02-18T21:32:06.640Z,1.60
2019-02-18T21:34:36.357Z,1.70
2019-02-18T21:37:05.969Z,1.70
2019-02-18T21:39:35.609Z,1.60
2019-02-18T21:42:05.349Z,1.60
2019-02-18T21:44:35.338Z,1.60
2019-02-18T21:47:25.793Z,1.40
2019-02-18T21:49:55.436Z,1.40
2019-02-18T21:52:25.060Z,1.50
2019-02-18T21:54:55.082Z,1.40
2019-02-18T21:57:24.717Z,1.30
2019-02-18T21:59:54.429Z,1.30
2019-02-18T22:02:24.093Z,1.20
2019-02-18T22:04:53.720Z,1.20
2019-02-18T22:07:23.352Z,1.30
2019-02-18T22:09:53.304Z,1.20
2019-02-18T22:12:23.069Z,1.10
2019-02-18T22:14:52.713Z,1.10
2019-02-18T22:17:22.341Z,1.00
2019-02-18T22:19:51.967Z,1.00
2019-02-18T22:22:21.633Z,1.00
2019-02-18T22:24:51.652Z,1.00
2019-02-18T22:27:21.572Z,0.90
2019-02-18T22:29:51.192Z,1.00
2019-02-18T22:32:20.839Z,0.90
2019-02-18T22:34:50.459Z,0.80
2019-02-18T22:37:20.161Z,0.80
2019-02-18T22:39:49.840Z,0.80
2019-02-18T22:42:19.492Z,0.80
2019-02-18T22:44:49.112Z,0.80
2019-02-18T22:47:18.766Z,0.80
2019-02-18T22:49:48.392Z,0.80
2019-02-18T22:52:18.044Z,0.60
2019-02-18T22:54:47.664Z,0.60
2019-02-18T22:57:17.313Z,0.60
2019-02-18T22:59:46.936Z,0.70
2019-02-18T23:02:16.723Z,0.50
2019-02-18T23:04:46.354Z,0.70
2019-02-18T23:07:16.000Z,0.70
2019-02-18T23:09:45.632Z,0.70
2019-02-18T23:12:15.354Z,0.70
2019-02-18T23:14:50.282Z,0.60
2019-02-18T23:17:16.292Z,0.40
2019-02-18T23:19:45.916Z,0.50
2019-02-18T23:22:15.692Z,0.50
2019-02-18T23:24:45.322Z,0.60
2019-02-18T23:27:14.969Z,0.70
2019-02-18T23:29:44.602Z,0.70
2019-02-18T23:32:14.245Z,0.50
2019-02-18T23:34:43.864Z,0.40
2019-02-18T23:37:13.547Z,0.30
2019-02-18T23:39:43.168Z,0.40
2019-02-18T23:42:12.848Z,0.40
2019-02-18T23:44:42.470Z,0.40
2019-02-18T23:47:12.117Z,0.40
2019-02-18T23:49:41.744Z,0.30
2019-02-18T23:52:11.590Z,0.20
2019-02-18T23:54:41.212Z,0.20
2019-02-18T23:57:10.857Z,0.20
2019-02-18T23:59:40.477Z,0.30
